Time;durP1;ratioP1;P1;durP2;ratioP2;P2;SDS_P1;SDS_P2;PMS_P1;PMS_P2;Temp;Humidity;BMP_temperature;BMP_pressure;BME280_temperature;BME280_humidity;BME280_pressure;Samples;Min_cycle;Max_cycle;Signal;HPM_P1;HPM_P2
2022/07/18 00:01:52;;;;;;;7.50;4.15;;;;;;;15.86;79.31;102324.59;4876039;29;20127;-68
2022/07/18 00:04:18;;;;;;;8.82;4.32;;;;;;;15.86;77.92;102324.59;4859332;29;20529;-68
2022/07/18 00:06:43;;;;;;;10.45;3.80;;;;;;;15.88;79.58;102327.91;4875641;29;20529;-68
2022/07/18 00:09:08;;;;;;;7.03;3.50;;;;;;;15.84;80.21;102324.78;4876083;29;20080;-68
2022/07/18 00:11:34;;;;;;;7.60;4.40;;;;;;;15.78;79.21;102325.56;4876006;29;20100;-68
2022/07/18 00:13:59;;;;;;;9.65;3.45;;;;;;;15.76;79.10;102331.13;4875961;29;20975;-68
2022/07/18 00:16:25;;;;;;;9.98;4.43;;;;;;;15.69;81.16;102324.03;4875842;29;20065;-68
2022/07/18 00:18:50;;;;;;;8.77;3.63;;;;;;;15.65;80.05;102322.72;4875917;29;20053;-68
2022/07/18 00:21:16;;;;;;;7.78;3.40;;;;;;;15.64;78.79;102321.91;4875812;29;20808;-68
2022/07/18 00:23:42;;;;;;;15.05;4.75;;;;;;;15.61;80.04;102313.38;4875666;29;20414;-68
2022/07/18 00:26:07;;;;;;;5.57;3.08;;;;;;;15.59;80.82;102312.72;4875441;29;20036;-68
2022/07/18 00:28:33;;;;;;;8.40;4.05;;;;;;;15.54;80.36;102310.66;4875649;29;20394;-69
2022/07/18 00:30:58;;;;;;;6.68;3.42;;;;;;;15.46;80.80;102308.09;4875760;29;20072;-68
2022/07/18 00:33:23;;;;;;;8.38;4.32;;;;;;;15.45;80.68;102299.16;4875639;29;20039;-68
2022/07/18 00:35:49;;;;;;;7.75;3.28;;;;;;;15.50;81.15;102310.19;4875433;29;20028;-68
2022/07/18 00:38:14;;;;;;;9.85;4.57;;;;;;;15.49;81.30;102308.53;4875485;29;20033;-68
2022/07/18 00:40:40;;;;;;;9.25;3.33;;;;;;;15.44;81.52;102300.22;4875563;29;20058;-68
2022/07/18 00:43:05;;;;;;;7.35;4.47;;;;;;;15.44;80.73;102302.91;4875637;29;20455;-68
2022/07/18 00:45:30;;;;;;;6.75;3.88;;;;;;;15.41;81.14;102310.53;4875409;29;20037;-68
2022/07/18 00:47:56;;;;;;;6.18;3.20;;;;;;;15.33;80.57;102300.75;4875584;29;20131;-68
2022/07/18 00:50:23;;;;;;;7.20;4.00;;;;;;;15.25;80.83;102293.63;4878043;29;20025;-68
2022/07/18 00:52:48;;;;;;;6.45;3.00;;;;;;;15.20;82.23;102297.91;4881545;29;20037;-68
2022/07/18 00:55:15;;;;;;;5.47;3.15;;;;;;;15.14;83.03;102291.44;4883693;29;20405;-72
2022/07/18 00:57:41;;;;;;;5.88;3.17;;;;;;;15.07;82.48;102286.00;4881489;29;20050;-72
2022/07/18 01:02:54;;;;;;;6.75;4.05;;;;;;;15.14;81.00;102296.81;4881716;29;20040;-72
2022/07/18 01:05:20;;;;;;;7.32;3.92;;;;;;;15.14;81.16;102296.81;4881594;29;20919;-72
2022/07/18 01:07:45;;;;;;;7.97;3.38;;;;;;;15.13;79.84;102289.78;4881321;29;20061;-72
2022/07/18 01:10:11;;;;;;;6.95;3.92;;;;;;;15.14;79.16;102299.50;4881410;29;20044;-72
2022/07/18 01:12:37;;;;;;;7.85;3.45;;;;;;;15.09;81.14;102286.66;4881348;29;20048;-72
2022/07/18 01:15:04;;;;;;;8.93;3.85;;;;;;;15.00;78.81;102284.28;4881386;29;20487;-72
2022/07/18 01:17:29;;;;;;;15.10;5.35;;;;;;;14.94;78.70;102285.88;4881436;29;20036;-72
2022/07/18 01:19:54;;;;;;;7.30;3.83;;;;;;;14.92;79.66;102285.22;4881382;29;20397;-72
2022/07/18 01:22:20;;;;;;;8.82;3.78;;;;;;;14.89;79.82;102266.81;4881152;29;20396;-72
2022/07/18 01:24:46;;;;;;;10.63;4.35;;;;;;;14.92;80.38;102281.72;4881331;29;20044;-72
2022/07/18 01:27:20;;;;;;;7.63;3.70;;;;;;;14.84;79.41;102280.78;4881362;29;20382;-72
2022/07/18 01:29:48;;;;;;;8.68;4.75;;;;;;;14.78;80.02;102272.69;4881202;29;20068;-72
2022/07/18 01:32:13;;;;;;;6.20;3.63;;;;;;;14.76;80.21;102278.22;4881348;29;20469;-72
2022/07/18 01:34:39;;;;;;;7.80;4.15;;;;;;;14.76;81.18;102280.91;4881295;29;20040;-72
2022/07/18 01:37:05;;;;;;;9.50;5.50;;;;;;;14.75;81.40;102279.25;4881300;29;20394;-72
2022/07/18 01:39:31;;;;;;;10.48;4.97;;;;;;;14.71;81.92;102272.59;4881136;29;20040;-72
2022/07/18 01:41:59;;;;;;;7.00;4.03;;;;;;;14.66;82.02;102277.69;4881284;29;20093;-72
2022/07/18 01:44:26;;;;;;;12.40;5.65;;;;;;;14.59;82.04;102271.41;4881219;29;20029;-72
2022/07/18 01:46:51;;;;;;;8.30;3.90;;;;;;;14.53;82.66;102264.13;4881136;29;20068;-72
2022/07/18 01:49:18;;;;;;;13.32;4.50;;;;;;;14.59;82.79;102274.94;4880962;29;20455;-72
2022/07/18 01:51:52;;;;;;;6.97;3.80;;;;;;;14.57;82.46;102271.63;4881043;29;20033;-72
2022/07/18 01:54:22;;;;;;;10.02;4.05;;;;;;;14.61;82.82;102277.44;4881122;29;20401;-72
2022/07/18 01:56:47;;;;;;;9.20;4.43;;;;;;;14.59;81.89;102274.09;4881116;29;20028;-72
2022/07/18 01:59:13;;;;;;;13.40;5.07;;;;;;;14.59;82.27;102277.63;4880937;29;20037;-72
2022/07/18 02:01:38;;;;;;;10.63;5.05;;;;;;;14.60;80.65;102270.41;4878771;29;20033;-72
2022/07/18 02:04:04;;;;;;;8.25;4.53;;;;;;;14.58;81.05;102275.94;4861456;29;20041;-68
2022/07/18 02:06:29;;;;;;;8.93;3.70;;;;;;;14.59;81.96;102276.78;4877905;29;20049;-68
2022/07/18 02:08:54;;;;;;;8.57;3.97;;;;;;;14.54;81.45;102274.69;4878147;29;20037;-68
2022/07/18 02:11:20;;;;;;;8.82;4.50;;;;;;;14.48;81.13;102270.00;4877976;29;20029;-68
2022/07/18 02:13:45;;;;;;;9.52;4.60;;;;;;;14.46;81.63;102264.00;4861349;29;20393;-68
2022/07/18 02:16:11;;;;;;;15.32;5.15;;;;;;;14.49;81.92;102274.38;4877997;29;20039;-68
2022/07/18 02:18:36;;;;;;;8.68;4.72;;;;;;;14.45;81.99;102260.47;4877789;29;20063;-68
2022/07/18 02:21:02;;;;;;;10.35;5.88;;;;;;;14.44;80.70;102261.50;4861075;29;20025;-68
2022/07/18 02:23:27;;;;;;;11.52;4.82;;;;;;;14.41;81.25;102255.69;4861032;29;20041;-68
2022/07/18 02:25:53;;;;;;;8.82;4.85;;;;;;;14.40;80.59;102257.53;4877629;29;20048;-68
2022/07/18 02:28:19;;;;;;;8.93;4.60;;;;;;;14.26;80.09;102228.88;4877790;29;20051;-68
2022/07/18 02:30:44;;;;;;;10.20;5.93;;;;;;;14.27;80.23;102241.25;4877612;29;20516;-68
2022/07/18 02:33:10;;;;;;;8.70;4.57;;;;;;;14.28;80.56;102242.06;4877584;29;20041;-68
2022/07/18 02:35:35;;;;;;;9.32;4.85;;;;;;;14.28;80.86;102245.63;4877402;29;20029;-68
2022/07/18 02:38:01;;;;;;;10.38;5.25;;;;;;;14.28;81.19;102240.25;4877591;29;20047;-68
2022/07/18 02:40:26;;;;;;;10.15;4.30;;;;;;;14.30;81.24;102242.72;4877437;29;20041;-68
2022/07/18 02:42:51;;;;;;;7.85;4.47;;;;;;;14.31;81.47;102241.72;4877509;29;20540;-68
2022/07/18 02:45:17;;;;;;;13.05;4.50;;;;;;;14.25;81.68;102238.78;4877266;29;20041;-68
2022/07/18 02:47:42;;;;;;;11.13;4.75;;;;;;;14.26;81.06;102247.66;4860606;29;20041;-68
2022/07/18 02:50:09;;;;;;;9.77;4.72;;;;;;;14.19;81.34;102244.03;4877359;29;20500;-68
2022/07/18 02:52:34;;;;;;;15.02;4.72;;;;;;;14.15;81.61;102248.13;4877240;29;20497;-68
2022/07/18 02:55:01;;;;;;;13.43;4.72;;;;;;;13.99;82.29;102247.31;4877039;29;20037;-68
2022/07/18 02:57:27;;;;;;;7.68;4.40;;;;;;;13.96;82.68;102245.00;4860745;29;20552;-68
2022/07/18 02:59:52;;;;;;;10.57;4.80;;;;;;;13.93;83.36;102241.81;4877186;29;20139;-68
2022/07/18 03:02:18;;;;;;;9.13;4.78;;;;;;;13.99;83.29;102252.66;4877027;29;20108;-68
2022/07/18 03:04:43;;;;;;;10.00;4.72;;;;;;;14.04;83.28;102252.09;4860532;29;20370;-68
2022/07/18 03:07:08;;;;;;;18.15;5.85;;;;;;;14.01;82.97;102234.50;4876797;29;20539;-68
2022/07/18 03:09:34;;;;;;;9.02;4.63;;;;;;;14.01;82.14;102234.50;4876985;29;20037;-68
2022/07/18 03:11:59;;;;;;;9.13;4.93;;;;;;;14.02;80.88;102243.41;4844741;29;20082;-68
2022/07/18 03:14:24;;;;;;;8.25;4.93;;;;;;;14.03;81.58;102240.53;4876264;29;20033;-68
2022/07/18 03:16:50;;;;;;;9.70;4.47;;;;;;;14.03;82.35;102231.66;4876952;29;20033;-68
2022/07/18 03:19:16;;;;;;;9.50;4.55;;;;;;;13.98;82.19;102242.09;4860069;29;20124;-68
2022/07/18 03:21:41;;;;;;;9.07;4.63;;;;;;;13.93;82.25;102231.09;4876826;29;20125;-68
2022/07/18 03:24:07;;;;;;;11.55;5.82;;;;;;;13.90;81.98;102226.94;4877035;29;20033;-68
2022/07/18 03:26:32;;;;;;;9.20;4.78;;;;;;;13.90;82.06;102223.44;4876588;29;20052;-69
2022/07/18 03:28:57;;;;;;;10.18;4.80;;;;;;;13.90;82.07;102213.53;4876889;29;20069;-68
2022/07/18 03:31:23;;;;;;;9.45;5.65;;;;;;;13.85;82.01;102218.59;4876540;29;20037;-68
2022/07/18 03:33:48;;;;;;;9.52;5.15;;;;;;;13.79;82.39;102214.81;4876652;29;20359;-69
2022/07/18 03:36:14;;;;;;;9.98;5.13;;;;;;;13.81;82.69;102214.66;4859881;29;20044;-68
2022/07/18 03:38:42;;;;;;;10.30;4.72;;;;;;;13.75;82.80;102213.53;4859526;29;20152;-68
2022/07/18 03:41:10;;;;;;;12.13;5.55;;;;;;;13.74;83.17;102208.34;4876395;29;20082;-69
2022/07/18 03:43:36;;;;;;;14.20;5.72;;;;;;;13.75;83.84;102213.53;4874966;29;20032;-68
2022/07/18 03:46:01;;;;;;;10.88;5.05;;;;;;;13.77;83.28;102213.34;4876309;29;20037;-68
2022/07/18 03:48:27;;;;;;;9.23;4.95;;;;;;;13.77;83.64;102203.44;4876334;29;20047;-69
2022/07/18 03:50:52;;;;;;;12.68;5.50;;;;;;;13.86;83.26;102206.88;4876135;29;20526;-68
2022/07/18 03:53:17;;;;;;;11.15;5.07;;;;;;;13.90;83.63;102210.84;4875972;29;20370;-68
2022/07/18 03:55:44;;;;;;;12.75;5.68;;;;;;;13.88;83.00;102212.88;4875909;29;20037;-68
2022/07/18 03:58:09;;;;;;;11.07;5.30;;;;;;;13.85;83.34;102215.94;4876118;29;20124;-68
2022/07/18 04:00:34;;;;;;;9.35;4.90;;;;;;;13.81;83.50;102210.09;4876064;29;20123;-68
2022/07/18 04:03:00;;;;;;;13.07;5.95;;;;;;;13.78;84.05;102206.94;4876184;29;20052;-68
2022/07/18 04:05:25;;;;;;;17.35;6.43;;;;;;;13.80;82.56;102203.06;4876001;29;20049;-68
2022/07/18 04:07:51;;;;;;;10.68;4.63;;;;;;;13.72;82.80;102186.25;4875944;29;20105;-68
2022/07/18 04:10:16;;;;;;;11.38;5.57;;;;;;;13.84;82.65;102203.53;4875853;29;20037;-68
2022/07/18 04:12:49;;;;;;;12.90;5.72;;;;;;;13.87;82.24;102207.72;4875793;29;20025;-68
2022/07/18 04:15:16;;;;;;;12.93;6.03;;;;;;;13.91;81.98;102203.63;4875632;29;20029;-69
2022/07/18 04:17:41;;;;;;;12.00;6.00;;;;;;;13.93;81.58;102204.28;4876001;29;20024;-68
2022/07/18 04:20:07;;;;;;;12.32;5.60;;;;;;;13.94;81.04;102201.41;4875738;29;20043;-68
2022/07/18 04:22:47;;;;;;;11.77;5.90;;;;;;;13.98;81.44;102201.88;4875810;29;20037;-68
2022/07/18 04:25:13;;;;;;;11.48;5.63;;;;;;;14.06;82.79;102198.25;4875002;29;20068;-68
2022/07/18 04:27:39;;;;;;;14.85;7.47;;;;;;;14.07;82.03;102199.91;4875374;29;20062;-68
2022/07/18 04:30:04;;;;;;;10.32;6.00;;;;;;;14.11;82.05;102194.00;4875485;29;20832;-68
2022/07/18 04:32:30;;;;;;;11.13;6.40;;;;;;;14.13;83.07;102188.44;4875620;29;20104;-68
2022/07/18 04:34:55;;;;;;;10.93;5.15;;;;;;;14.17;82.94;102195.94;4875663;29;20021;-68
2022/07/18 04:37:20;;;;;;;14.20;5.35;;;;;;;14.20;83.70;102184.84;4875753;29;20044;-68
2022/07/18 04:39:46;;;;;;;15.18;6.13;;;;;;;14.22;83.16;102187.31;4875419;29;20037;-69
2022/07/18 04:42:11;;;;;;;14.93;6.53;;;;;;;14.29;82.86;102180.19;4875560;29;20079;-67
2022/07/18 04:44:36;;;;;;;13.15;5.80;;;;;;;14.32;82.22;102178.97;4875336;29;20132;-68
2022/07/18 04:47:02;;;;;;;10.15;5.95;;;;;;;14.39;81.83;102180.72;4875257;29;20029;-68
2022/07/18 04:49:27;;;;;;;17.05;6.35;;;;;;;14.51;81.91;102183.72;4875441;29;20489;-68
2022/07/18 04:51:52;;;;;;;12.10;5.75;;;;;;;14.58;82.46;102181.97;4875343;29;20044;-68
2022/07/18 04:54:18;;;;;;;11.25;5.85;;;;;;;14.65;81.96;102182.88;4875236;29;20025;-68
2022/07/18 04:56:43;;;;;;;12.57;6.07;;;;;;;14.71;82.95;102177.78;4874945;29;20033;-68
2022/07/18 04:59:08;;;;;;;15.25;5.97;;;;;;;14.79;82.47;102178.47;4858268;29;20192;-67
2022/07/18 05:01:35;;;;;;;13.85;5.82;;;;;;;14.86;82.56;102173.16;4875223;29;20097;-69
2022/07/18 05:04:00;;;;;;;18.08;6.80;;;;;;;14.96;82.05;102176.38;4875439;29;20057;-68
2022/07/18 05:06:25;;;;;;;16.10;5.75;;;;;;;15.00;81.50;102169.56;4875034;29;20064;-68
2022/07/18 05:08:51;;;;;;;11.63;6.13;;;;;;;15.12;80.05;102186.00;4875388;29;20056;-68
2022/07/18 05:11:16;;;;;;;16.98;7.53;;;;;;;15.17;78.37;102180.88;4875435;29;20033;-68
2022/07/18 05:13:41;;;;;;;14.20;6.60;;;;;;;15.31;77.17;102179.13;4875234;29;20040;-68
2022/07/18 05:16:07;;;;;;;21.15;8.85;;;;;;;15.44;76.83;102181.09;4875169;29;20089;-68
2022/07/18 05:18:32;;;;;;;12.27;7.18;;;;;;;15.56;76.42;102190.25;4858289;29;20092;-68
2022/07/18 05:20:57;;;;;;;13.60;7.32;;;;;;;15.69;76.27;102190.38;4875116;29;20025;-68
2022/07/18 05:23:24;;;;;;;16.30;7.93;;;;;;;15.82;74.87;102178.84;4874531;29;20048;-68
2022/07/18 05:25:50;;;;;;;18.25;7.72;;;;;;;15.92;73.14;102176.63;4875010;29;20520;-68
2022/07/18 05:28:15;;;;;;;16.45;8.20;;;;;;;16.06;73.03;102182.91;4874960;29;20065;-68
2022/07/18 05:30:41;;;;;;;12.50;6.95;;;;;;;16.11;71.70;102177.78;4874988;29;20052;-68
2022/07/18 05:33:06;;;;;;;15.95;7.45;;;;;;;16.20;70.64;102176.53;4875027;29;20060;-68
2022/07/18 05:35:32;;;;;;;10.60;6.13;;;;;;;16.33;69.71;102183.03;4858493;29;20036;-68
2022/07/18 05:37:57;;;;;;;10.25;4.88;;;;;;;16.42;69.35;102184.47;4878332;29;20132;-68
2022/07/18 05:40:22;;;;;;;13.05;5.70;;;;;;;16.55;69.29;102178.31;4878508;29;20037;-68
2022/07/18 05:42:49;;;;;;;8.02;4.80;;;;;;;16.69;69.38;102180.00;4878385;29;20550;-68
2022/07/18 05:45:15;;;;;;;11.05;6.05;;;;;;;16.80;69.80;102176.72;4878472;29;20041;-68
2022/07/18 05:47:41;;;;;;;9.38;5.50;;;;;;;16.88;69.46;102173.00;4877815;29;20033;-68
2022/07/18 05:50:08;;;;;;;8.95;5.20;;;;;;;17.00;69.36;102190.22;4878484;29;20033;-68
2022/07/18 05:52:33;;;;;;;14.57;6.25;;;;;;;17.07;68.79;102187.53;4877862;29;20039;-68
2022/07/18 05:54:59;;;;;;;15.10;5.10;;;;;;;17.17;68.17;102187.13;4878519;29;20029;-68
2022/07/18 05:57:24;;;;;;;13.13;5.25;;;;;;;17.27;68.43;102193.75;4877780;29;20485;-68
2022/07/18 05:59:50;;;;;;;10.30;5.65;;;;;;;17.32;69.01;102193.13;4878119;29;20033;-68
2022/07/18 06:02:15;;;;;;;12.43;6.18;;;;;;;17.34;68.49;102187.50;4861342;29;20068;-68
2022/07/18 06:04:41;;;;;;;12.65;5.85;;;;;;;17.43;68.77;102192.50;4878045;29;20437;-68
2022/07/18 06:07:06;;;;;;;14.30;6.47;;;;;;;17.46;68.55;102202.84;4878133;29;20076;-68
2022/07/18 06:09:33;;;;;;;13.80;6.85;;;;;;;17.51;68.50;102194.13;4877939;29;20047;-68
2022/07/18 06:11:59;;;;;;;12.32;6.45;;;;;;;17.59;67.48;102190.41;4878004;29;20044;-68
2022/07/18 06:14:27;;;;;;;15.00;6.90;;;;;;;17.64;67.69;102180.63;4877737;29;20037;-68
2022/07/18 06:16:52;;;;;;;12.93;7.20;;;;;;;17.67;65.92;102182.06;4877975;29;20029;-68
2022/07/18 06:19:17;;;;;;;13.80;6.70;;;;;;;17.68;66.02;102181.88;4877841;29;20044;-68
2022/07/18 06:21:43;;;;;;;11.88;6.40;;;;;;;17.62;65.67;102163.00;4877841;29;20190;-69
2022/07/18 06:24:08;;;;;;;16.33;5.95;;;;;;;17.67;66.83;102161.31;4877732;29;20037;-68
2022/07/18 06:26:34;;;;;;;19.13;7.53;;;;;;;17.80;67.46;102186.63;4877694;29;20033;-68
2022/07/18 06:28:59;;;;;;;14.98;6.88;;;;;;;17.86;65.95;102178.50;4877732;29;20061;-70
2022/07/18 06:31:24;;;;;;;14.18;7.10;;;;;;;17.94;65.04;102178.28;4877708;29;20037;-70
2022/07/18 06:33:50;;;;;;;12.70;6.30;;;;;;;17.96;64.56;102170.78;4877552;29;20036;-69
2022/07/18 06:36:15;;;;;;;16.95;5.97;;;;;;;18.02;64.12;102174.50;4877348;29;20482;-69
2022/07/18 06:38:41;;;;;;;11.52;6.97;;;;;;;18.08;64.25;102167.44;4877508;29;20469;-70
2022/07/18 06:41:07;;;;;;;15.10;7.15;;;;;;;18.15;64.45;102166.34;4877291;29;20037;-68
2022/07/18 06:43:33;;;;;;;11.75;6.07;;;;;;;18.19;63.78;102158.66;4877458;29;20037;-68
2022/07/18 06:45:59;;;;;;;14.10;6.38;;;;;;;18.23;64.08;102159.03;4877239;29;20037;-68
2022/07/18 06:48:24;;;;;;;19.90;8.55;;;;;;;18.28;63.77;102151.94;4876806;29;20124;-68
2022/07/18 06:50:50;;;;;;;13.57;6.45;;;;;;;18.31;64.09;102143.44;4876711;29;20037;-68
2022/07/18 06:53:15;;;;;;;14.60;6.60;;;;;;;18.38;63.57;102133.41;4877011;29;20048;-68
2022/07/18 06:55:41;;;;;;;13.20;7.15;;;;;;;18.46;64.43;102139.59;4877165;29;20039;-68
2022/07/18 06:58:06;;;;;;;18.05;8.15;;;;;;;18.56;63.61;102148.88;4877127;29;20044;-69
2022/07/18 07:00:31;;;;;;;11.50;7.28;;;;;;;18.68;63.47;102154.44;4876642;29;20037;-68
2022/07/18 07:02:57;;;;;;;18.27;7.53;;;;;;;18.80;62.90;102158.09;4877196;29;20041;-68
2022/07/18 07:05:22;;;;;;;11.32;6.78;;;;;;;18.87;62.22;102144.53;4860278;29;20446;-69
2022/07/18 07:07:49;;;;;;;14.50;6.65;;;;;;;19.01;62.53;102151.47;4876566;29;20064;-69
2022/07/18 07:10:16;;;;;;;10.02;5.60;;;;;;;19.10;62.51;102149.34;4876851;29;20512;-69
2022/07/18 07:12:49;;;;;;;13.55;6.53;;;;;;;19.21;62.11;102153.19;4876830;29;20529;-68
2022/07/18 07:15:18;;;;;;;12.38;6.60;;;;;;;19.37;62.79;102165.31;4876944;29;20032;-69
2022/07/18 07:17:44;;;;;;;16.27;7.82;;;;;;;19.44;62.80;102164.19;4877035;29;20124;-68
2022/07/18 07:20:10;;;;;;;11.95;6.15;;;;;;;19.54;62.82;102165.56;4876879;29;20150;-69
2022/07/18 07:22:43;;;;;;;17.42;7.53;;;;;;;19.67;63.58;102170.84;4876859;29;20099;-68
2022/07/18 07:25:09;;;;;;;12.77;6.72;;;;;;;19.79;62.52;102165.53;4876582;29;20128;-69
2022/07/18 07:27:34;;;;;;;12.25;7.13;;;;;;;19.89;62.26;102166.66;4876539;29;20161;-69
2022/07/18 07:30:00;;;;;;;11.63;6.90;;;;;;;20.00;61.59;102161.53;4876617;29;20098;-69
2022/07/18 07:32:25;;;;;;;14.38;7.60;;;;;;;20.08;61.54;102156.63;4876556;29;20064;-69
2022/07/18 07:34:50;;;;;;;13.48;7.63;;;;;;;20.16;60.68;102155.47;4876655;29;20040;-69
2022/07/18 07:37:16;;;;;;;17.55;8.85;;;;;;;20.24;60.65;102152.44;4876516;29;20096;-69
2022/07/18 07:39:41;;;;;;;13.00;8.13;;;;;;;20.34;61.37;102154.63;4876391;29;20043;-68
2022/07/18 07:42:06;;;;;;;17.05;8.23;;;;;;;20.44;63.75;102156.78;4876467;29;20162;-68
2022/07/18 07:44:32;;;;;;;12.35;7.30;;;;;;;20.51;62.51;102155.63;4876391;29;20032;-69
2022/07/18 07:46:59;;;;;;;16.73;7.50;;;;;;;20.55;61.37;102145.97;4876293;29;20127;-68
2022/07/18 07:49:24;;;;;;;13.48;7.93;;;;;;;20.65;61.99;102141.91;4876292;29;20090;-69
2022/07/18 07:51:50;;;;;;;13.38;7.57;;;;;;;20.84;60.48;102148.06;4876271;29;20057;-69
2022/07/18 07:54:15;;;;;;;10.07;5.90;;;;;;;20.97;57.74;102143.22;4875834;29;20127;-69
2022/07/18 07:56:40;;;;;;;14.63;7.95;;;;;;;21.09;56.76;102128.84;4876338;29;20064;-69
2022/07/18 07:59:06;;;;;;;13.48;6.53;;;;;;;21.23;58.37;102125.66;4875551;29;20056;-69
2022/07/18 08:01:31;;;;;;;19.15;7.50;;;;;;;21.39;58.06;102116.00;4858680;29;20033;-69
2022/07/18 08:03:56;;;;;;;13.80;6.53;;;;;;;21.63;56.77;102127.63;4875950;29;20045;-69
2022/07/18 08:06:22;;;;;;;13.65;7.07;;;;;;;21.79;55.60;102117.09;4875744;29;20088;-73
2022/07/18 08:08:47;;;;;;;13.00;6.85;;;;;;;21.93;55.13;102102.19;4876152;29;20112;-73
2022/07/18 08:11:12;;;;;;;12.07;5.50;;;;;;;22.16;57.94;102105.84;4875926;29;20053;-74
2022/07/18 08:13:38;;;;;;;10.70;5.20;;;;;;;22.71;51.81;102097.03;4876099;29;20036;-74
2022/07/18 08:16:03;;;;;;;14.90;6.35;;;;;;;24.53;47.65;102098.81;4875998;29;20061;-74
2022/07/18 08:18:29;;;;;;;11.02;5.38;;;;;;;27.21;42.42;102097.44;4875798;29;20025;-75
2022/07/18 08:20:54;;;;;;;7.97;4.57;;;;;;;29.09;36.83;102104.72;4859209;29;20151;-74
2022/07/18 08:23:20;;;;;;;9.82;4.55;;;;;;;30.58;34.27;102109.81;4843634;29;20135;-74
2022/07/18 08:25:46;;;;;;;12.88;4.00;;;;;;;32.03;32.82;102114.94;4858620;29;20036;-74
2022/07/18 08:28:12;;;;;;;5.82;3.10;;;;;;;33.44;28.88;102120.16;4875608;29;20398;-74
2022/07/18 08:30:39;;;;;;;6.38;3.00;;;;;;;34.19;27.00;102132.00;4875730;29;20108;-74
2022/07/18 08:33:05;;;;;;;9.55;3.80;;;;;;;34.93;27.31;102128.13;4875650;29;20032;-70
2022/07/18 08:35:32;;;;;;;4.55;3.03;;;;;;;35.81;24.27;102115.41;4875531;29;20076;-70
2022/07/18 08:37:58;;;;;;;4.85;2.67;;;;;;;36.14;24.72;102114.69;4875564;29;20057;-70
2022/07/18 08:40:24;;;;;;;7.20;3.40;;;;;;;36.76;22.21;102122.06;4875531;29;20032;-70
2022/07/18 08:42:52;;;;;;;7.35;2.15;;;;;;;37.30;21.49;102118.25;4858879;29;20037;-70
2022/07/18 08:45:21;;;;;;;7.20;1.90;;;;;;;37.32;20.41;102112.34;4875428;29;20481;-70
2022/07/18 08:47:47;;;;;;;2.88;2.15;;;;;;;37.42;20.27;102111.88;4875670;29;20052;-70
2022/07/18 08:50:13;;;;;;;6.28;2.05;;;;;;;37.55;21.03;102107.13;4875160;29;20028;-70
2022/07/18 08:52:39;;;;;;;3.10;1.67;;;;;;;37.64;20.76;102116.94;4875661;29;20064;-70
2022/07/18 08:55:08;;;;;;;4.18;2.50;;;;;;;37.60;20.11;102109.66;4875511;29;20421;-70
2022/07/18 08:57:34;;;;;;;4.75;2.35;;;;;;;37.52;20.53;102105.03;4875416;29;20060;-69
2022/07/18 09:00:03;;;;;;;5.30;2.30;;;;;;;37.64;21.09;102103.03;4875226;29;20079;-70
2022/07/18 09:02:28;;;;;;;3.78;2.30;;;;;;;37.54;21.29;102108.28;4875026;29;20029;-70
2022/07/18 09:04:54;;;;;;;5.45;2.70;;;;;;;37.68;21.08;102101.19;4875151;29;20039;-70
2022/07/18 09:07:25;;;;;;;3.00;1.95;;;;;;;37.17;22.21;102102.72;4875088;29;20088;-70
2022/07/18 09:09:57;;;;;;;3.42;1.73;;;;;;;35.37;23.28;102102.94;4875264;29;20040;-70
2022/07/18 09:12:25;;;;;;;2.83;1.95;;;;;;;33.64;24.46;102102.94;4878118;29;20465;-70
2022/07/18 09:14:51;;;;;;;8.07;2.17;;;;;;;32.26;25.88;102093.69;4879042;29;20052;-70
2022/07/18 09:17:29;;;;;;;4.63;2.10;;;;;;;31.26;30.06;102101.13;4878888;29;20075;-70
2022/07/18 09:20:01;;;;;;;3.95;2.30;;;;;;;30.35;30.86;102102.50;4878779;29;20043;-70
2022/07/18 09:22:30;;;;;;;;;;;;;;;30.16;32.75;102102.50;4879568;29;20057;-70
2022/07/18 09:25:14;;;;;;;4.93;2.08;;;;;;;29.42;30.90;102104.88;4878553;29;20280;-70
2022/07/18 09:27:41;;;;;;;4.72;2.35;;;;;;;28.99;30.94;102102.06;4878841;29;20069;-70
2022/07/18 09:30:22;;;;;;;4.10;1.95;;;;;;;28.74;33.37;102101.22;4878532;29;20050;-70
2022/07/18 09:32:51;;;;;;;;;;;;;;;28.68;34.46;102107.03;4878912;29;20084;-70
2022/07/18 09:35:26;;;;;;;6.07;2.50;;;;;;;28.37;34.40;102091.63;4878696;29;20010;-70
2022/07/18 09:37:56;;;;;;;3.97;2.00;;;;;;;28.35;35.16;102104.81;4861984;29;20028;-70
2022/07/18 09:40:26;;;;;;;4.03;1.85;;;;;;;28.28;35.49;102104.31;4878623;29;20032;-70
2022/07/18 09:42:54;;;;;;;4.82;2.67;;;;;;;28.25;35.97;102113.13;4878598;29;20052;-70
2022/07/18 09:45:25;;;;;;;7.30;3.17;;;;;;;28.13;34.50;102107.97;4878417;29;20564;-70
2022/07/18 09:47:56;;;;;;;3.92;2.50;;;;;;;28.10;32.49;102105.81;4878732;29;20484;-70
2022/07/18 09:50:25;;;;;;;3.10;2.03;;;;;;;28.11;34.50;102103.88;4878289;29;20033;-70
2022/07/18 09:53:01;;;;;;;4.90;1.90;;;;;;;28.07;34.13;102094.59;4878496;29;20037;-70
2022/07/18 09:55:27;;;;;;;6.40;2.42;;;;;;;28.08;33.53;102101.69;4878415;29;20148;-70
2022/07/18 09:58:08;;;;;;;4.70;2.17;;;;;;;28.04;33.55;102103.38;4878185;29;20036;-70
2022/07/18 10:00:38;;;;;;;6.45;2.53;;;;;;;28.06;34.66;102096.53;4878377;29;20036;-70
2022/07/18 10:03:05;;;;;;;5.15;2.10;;;;;;;28.03;32.87;102090.75;4877935;29;20422;-70
2022/07/18 10:05:34;;;;;;;7.35;3.20;;;;;;;28.17;34.52;102097.25;4878144;29;20033;-70
2022/07/18 10:08:02;;;;;;;3.25;2.22;;;;;;;28.30;34.50;102101.28;4895245;29;20659;-70
2022/07/18 10:10:30;;;;;;;3.33;2.47;;;;;;;28.34;33.37;102094.91;4896482;29;20048;-70
2022/07/18 10:12:58;;;;;;;2.92;2.03;;;;;;;28.37;34.46;102099.84;4896350;29;20032;-70
2022/07/18 10:15:30;;;;;;;3.00;2.20;;;;;;;28.43;34.52;102095.13;4896512;29;20029;-70
2022/07/18 10:17:57;;;;;;;5.53;2.55;;;;;;;28.54;33.10;102087.66;4896369;29;20025;-70
2022/07/18 10:20:31;;;;;;;5.20;2.40;;;;;;;28.64;33.99;102087.56;4896282;29;20044;-70
2022/07/18 10:23:02;;;;;;;3.58;2.00;;;;;;;28.80;34.78;102088.25;4895233;29;20024;-70
2022/07/18 10:25:28;;;;;;;5.32;1.92;;;;;;;28.89;32.56;102086.50;4896016;29;20033;-70
2022/07/18 10:28:11;;;;;;;3.63;2.13;;;;;;;28.91;34.55;102094.44;4896120;29;20052;-70
2022/07/18 10:30:43;;;;;;;6.50;3.17;;;;;;;28.90;34.22;102081.81;4869767;29;20033;-70
2022/07/18 10:33:38;;;;;;;5.70;2.47;;;;;;;29.02;33.86;102091.28;4877913;29;20143;-69
2022/07/18 10:36:06;;;;;;;4.32;2.15;;;;;;;29.09;33.30;102084.69;4878322;29;20381;-69
2022/07/18 10:38:31;;;;;;;2.58;1.80;;;;;;;29.21;35.63;102083.16;4878255;29;20162;-70
2022/07/18 10:41:13;;;;;;;5.85;2.10;;;;;;;29.29;35.45;102087.16;4878008;29;20123;-69
2022/07/18 10:43:41;;;;;;;4.03;2.17;;;;;;;29.35;33.09;102090.69;4878114;29;20033;-68
2022/07/18 10:46:09;;;;;;;5.50;2.70;;;;;;;29.26;35.28;102083.06;4878578;29;20029;-73
2022/07/18 10:48:37;;;;;;;4.78;2.40;;;;;;;29.32;34.29;102085.75;4895910;29;20508;-72
2022/07/18 10:51:09;;;;;;;2.08;1.65;;;;;;;29.39;35.20;102086.22;4880481;29;20040;-73
2022/07/18 10:53:52;;;;;;;3.60;1.83;;;;;;;29.49;34.75;102086.09;4895322;29;20043;-73
2022/07/18 10:56:18;;;;;;;10.20;2.42;;;;;;;29.57;33.32;102070.88;4889618;29;20028;-73
2022/07/18 10:58:44;;;;;;;6.55;2.45;;;;;;;29.52;34.76;102079.19;4877619;29;20040;-72
2022/07/18 11:01:16;;;;;;;7.43;3.30;;;;;;;29.38;33.37;102082.66;4880452;29;20040;-72
2022/07/18 11:03:41;;;;;;;6.28;2.20;;;;;;;29.34;32.83;102083.53;4895569;29;20524;-72
2022/07/18 11:06:07;;;;;;;3.75;2.17;;;;;;;29.33;35.67;102079.16;4895230;29;20119;-72
2022/07/18 11:08:33;;;;;;;7.70;2.10;;;;;;;29.40;33.79;102082.38;4895517;29;20040;-72
2022/07/18 11:11:01;;;;;;;3.28;2.38;;;;;;;29.42;36.14;102080.13;4895536;29;20111;-72
2022/07/18 11:13:31;;;;;;;3.33;2.13;;;;;;;29.45;36.24;102074.06;4895353;29;20031;-72
2022/07/18 11:16:04;;;;;;;9.23;2.42;;;;;;;29.47;34.85;102071.81;4878429;29;20039;-72
2022/07/18 11:18:39;;;;;;;4.22;2.10;;;;;;;29.41;35.11;102067.50;4894917;29;20033;-72
2022/07/18 11:21:15;;;;;;;4.95;2.40;;;;;;;29.42;34.32;102055.41;4895283;29;20051;-72
2022/07/18 11:23:49;;;;;;;4.93;2.35;;;;;;;29.54;34.77;102061.28;4895185;29;20497;-72